sensor_id;sensor_type;location;lat;lon;timestamp;P1;durP1;ratioP1;P2;durP2;ratioP2
52480;SDS011;38393;52.404;13.532;2022-08-14T00:00:40;4.90;;;3.35;;
52480;SDS011;38393;52.404;13.532;2022-08-14T00:03:06;5.80;;;4.05;;
52480;SDS011;38393;52.404;13.532;2022-08-14T00:05:32;6.18;;;3.88;;
52480;SDS011;38393;52.404;13.532;2022-08-14T00:07:58;7.85;;;4.38;;
52480;SDS011;38393;52.404;13.532;2022-08-14T00:10:24;6.35;;;3.80;;
52480;SDS011;38393;52.404;13.532;2022-08-14T00:12:51;5.75;;;4.10;;
52480;SDS011;38393;52.404;13.532;2022-08-14T00:15:23;5.18;;;3.83;;
52480;SDS011;38393;52.404;13.532;2022-08-14T00:17:49;4.50;;;3.55;;
52480;SDS011;38393;52.404;13.532;2022-08-14T00:20:16;6.00;;;4.75;;
52480;SDS011;38393;52.404;13.532;2022-08-14T00:22:42;4.80;;;3.33;;
52480;SDS011;38393;52.404;13.532;2022-08-14T00:25:08;5.47;;;3.35;;
52480;SDS011;38393;52.404;13.532;2022-08-14T00:27:34;6.50;;;4.38;;
52480;SDS011;38393;52.404;13.532;2022-08-14T00:30:04;5.18;;;3.95;;
52480;SDS011;38393;52.404;13.532;2022-08-14T00:32:30;5.57;;;4.40;;
52480;SDS011;38393;52.404;13.532;2022-08-14T00:34:56;6.05;;;3.42;;
52480;SDS011;38393;52.404;13.532;2022-08-14T00:37:25;5.43;;;3.72;;
52480;SDS011;38393;52.404;13.532;2022-08-14T00:39:51;5.93;;;4.10;;
52480;SDS011;38393;52.404;13.532;2022-08-14T00:42:20;4.95;;;3.28;;
52480;SDS011;38393;52.404;13.532;2022-08-14T00:44:46;4.75;;;3.38;;
52480;SDS011;38393;52.404;13.532;2022-08-14T00:47:12;5.03;;;4.22;;
52480;SDS011;38393;52.404;13.532;2022-08-14T00:49:38;6.32;;;5.53;;
52480;SDS011;38393;52.404;13.532;2022-08-14T00:52:06;4.47;;;3.17;;
52480;SDS011;38393;52.404;13.532;2022-08-14T00:54:32;4.05;;;2.80;;
52480;SDS011;38393;52.404;13.532;2022-08-14T00:57:01;4.35;;;3.00;;
52480;SDS011;38393;52.404;13.532;2022-08-14T00:59:27;5.05;;;3.50;;
52480;SDS011;38393;52.404;13.532;2022-08-14T01:01:55;4.38;;;3.10;;
52480;SDS011;38393;52.404;13.532;2022-08-14T01:04:22;4.93;;;3.28;;
52480;SDS011;38393;52.404;13.532;2022-08-14T01:06:49;5.15;;;4.28;;
52480;SDS011;38393;52.404;13.532;2022-08-14T01:09:16;4.93;;;3.08;;
52480;SDS011;38393;52.404;13.532;2022-08-14T01:11:49;5.60;;;4.63;;
52480;SDS011;38393;52.404;13.532;2022-08-14T01:14:19;3.88;;;3.30;;
52480;SDS011;38393;52.404;13.532;2022-08-14T01:16:46;4.78;;;4.30;;
52480;SDS011;38393;52.404;13.532;2022-08-14T01:19:12;4.65;;;3.28;;
52480;SDS011;38393;52.404;13.532;2022-08-14T01:21:57;4.40;;;3.20;;
52480;SDS011;38393;52.404;13.532;2022-08-14T01:24:24;4.55;;;3.22;;
52480;SDS011;38393;52.404;13.532;2022-08-14T01:26:50;5.32;;;3.53;;
52480;SDS011;38393;52.404;13.532;2022-08-14T01:29:17;4.40;;;3.10;;
52480;SDS011;38393;52.404;13.532;2022-08-14T01:31:43;5.57;;;4.10;;
52480;SDS011;38393;52.404;13.532;2022-08-14T01:34:16;4.40;;;3.13;;
52480;SDS011;38393;52.404;13.532;2022-08-14T01:36:44;4.90;;;3.00;;
52480;SDS011;38393;52.404;13.532;2022-08-14T01:39:12;6.68;;;6.03;;
52480;SDS011;38393;52.404;13.532;2022-08-14T01:41:39;5.80;;;4.72;;
52480;SDS011;38393;52.404;13.532;2022-08-14T01:44:06;4.40;;;2.97;;
52480;SDS011;38393;52.404;13.532;2022-08-14T01:46:36;5.18;;;4.60;;
52480;SDS011;38393;52.404;13.532;2022-08-14T01:49:09;4.38;;;3.38;;
52480;SDS011;38393;52.404;13.532;2022-08-14T01:51:36;4.28;;;3.72;;
52480;SDS011;38393;52.404;13.532;2022-08-14T01:54:04;4.00;;;2.70;;
52480;SDS011;38393;52.404;13.532;2022-08-14T01:56:32;3.92;;;3.33;;
52480;SDS011;38393;52.404;13.532;2022-08-14T02:01:33;5.00;;;3.72;;
52480;SDS011;38393;52.404;13.532;2022-08-14T02:04:00;5.05;;;3.25;;
52480;SDS011;38393;52.404;13.532;2022-08-14T02:06:26;3.72;;;2.90;;
52480;SDS011;38393;52.404;13.532;2022-08-14T02:08:52;6.03;;;5.38;;
52480;SDS011;38393;52.404;13.532;2022-08-14T02:11:18;4.88;;;3.60;;
52480;SDS011;38393;52.404;13.532;2022-08-14T02:13:55;11.43;;;10.50;;
52480;SDS011;38393;52.404;13.532;2022-08-14T02:16:24;4.10;;;3.38;;
52480;SDS011;38393;52.404;13.532;2022-08-14T02:18:51;6.97;;;4.82;;
52480;SDS011;38393;52.404;13.532;2022-08-14T02:21:17;6.80;;;4.50;;
52480;SDS011;38393;52.404;13.532;2022-08-14T02:23:44;5.40;;;3.83;;
52480;SDS011;38393;52.404;13.532;2022-08-14T02:26:16;4.35;;;3.00;;
52480;SDS011;38393;52.404;13.532;2022-08-14T02:28:42;5.57;;;4.00;;
52480;SDS011;38393;52.404;13.532;2022-08-14T02:31:09;4.38;;;3.15;;
52480;SDS011;38393;52.404;13.532;2022-08-14T02:33:37;5.60;;;3.92;;
52480;SDS011;38393;52.404;13.532;2022-08-14T02:36:03;4.78;;;3.13;;
52480;SDS011;38393;52.404;13.532;2022-08-14T02:38:29;5.05;;;3.53;;
52480;SDS011;38393;52.404;13.532;2022-08-14T02:40:56;4.55;;;3.05;;
52480;SDS011;38393;52.404;13.532;2022-08-14T02:43:22;4.43;;;3.00;;
52480;SDS011;38393;52.404;13.532;2022-08-14T02:45:48;5.30;;;3.08;;
52480;SDS011;38393;52.404;13.532;2022-08-14T02:48:14;4.90;;;3.05;;
52480;SDS011;38393;52.404;13.532;2022-08-14T02:50:41;4.18;;;3.08;;
52480;SDS011;38393;52.404;13.532;2022-08-14T02:53:08;5.13;;;4.55;;
52480;SDS011;38393;52.404;13.532;2022-08-14T02:55:35;4.57;;;3.53;;
52480;SDS011;38393;52.404;13.532;2022-08-14T02:58:02;4.90;;;4.28;;
52480;SDS011;38393;52.404;13.532;2022-08-14T03:00:30;4.30;;;3.20;;
52480;SDS011;38393;52.404;13.532;2022-08-14T03:02:56;6.68;;;3.75;;
52480;SDS011;38393;52.404;13.532;2022-08-14T03:05:22;5.13;;;4.57;;
52480;SDS011;38393;52.404;13.532;2022-08-14T03:07:48;4.43;;;3.17;;
52480;SDS011;38393;52.404;13.532;2022-08-14T03:10:14;4.07;;;2.85;;
52480;SDS011;38393;52.404;13.532;2022-08-14T03:12:40;6.65;;;6.05;;
52480;SDS011;38393;52.404;13.532;2022-08-14T03:15:06;4.95;;;3.25;;
52480;SDS011;38393;52.404;13.532;2022-08-14T03:17:37;5.18;;;3.53;;
52480;SDS011;38393;52.404;13.532;2022-08-14T03:20:04;5.30;;;3.55;;
52480;SDS011;38393;52.404;13.532;2022-08-14T03:22:31;5.22;;;3.58;;
52480;SDS011;38393;52.404;13.532;2022-08-14T03:24:57;6.13;;;3.67;;
52480;SDS011;38393;52.404;13.532;2022-08-14T03:27:26;6.45;;;4.00;;
52480;SDS011;38393;52.404;13.532;2022-08-14T03:29:55;14.73;;;9.18;;
52480;SDS011;38393;52.404;13.532;2022-08-14T03:32:21;15.23;;;11.00;;
52480;SDS011;38393;52.404;13.532;2022-08-14T03:34:48;22.27;;;13.45;;
52480;SDS011;38393;52.404;13.532;2022-08-14T03:37:14;14.80;;;11.95;;
52480;SDS011;38393;52.404;13.532;2022-08-14T03:39:40;17.40;;;10.57;;
52480;SDS011;38393;52.404;13.532;2022-08-14T03:42:06;17.73;;;11.40;;
52480;SDS011;38393;52.404;13.532;2022-08-14T03:44:32;17.40;;;10.43;;
52480;SDS011;38393;52.404;13.532;2022-08-14T03:46:59;14.27;;;10.32;;
52480;SDS011;38393;52.404;13.532;2022-08-14T03:49:25;14.57;;;10.50;;
52480;SDS011;38393;52.404;13.532;2022-08-14T03:51:51;14.90;;;9.93;;
52480;SDS011;38393;52.404;13.532;2022-08-14T03:54:17;14.30;;;9.32;;
52480;SDS011;38393;52.404;13.532;2022-08-14T03:56:42;13.00;;;9.65;;
52480;SDS011;38393;52.404;13.532;2022-08-14T03:59:09;13.52;;;9.63;;
52480;SDS011;38393;52.404;13.532;2022-08-14T04:01:36;13.52;;;10.27;;
52480;SDS011;38393;52.404;13.532;2022-08-14T04:04:03;14.32;;;9.73;;
52480;SDS011;38393;52.404;13.532;2022-08-14T04:06:30;12.00;;;9.00;;
52480;SDS011;38393;52.404;13.532;2022-08-14T04:08:56;12.38;;;9.63;;
52480;SDS011;38393;52.404;13.532;2022-08-14T04:11:22;13.45;;;9.73;;
52480;SDS011;38393;52.404;13.532;2022-08-14T04:13:48;12.05;;;9.15;;
52480;SDS011;38393;52.404;13.532;2022-08-14T04:16:16;14.57;;;9.75;;
52480;SDS011;38393;52.404;13.532;2022-08-14T04:18:45;12.43;;;8.65;;
52480;SDS011;38393;52.404;13.532;2022-08-14T04:21:12;12.98;;;8.88;;
52480;SDS011;38393;52.404;13.532;2022-08-14T04:23:39;13.45;;;8.75;;
52480;SDS011;38393;52.404;13.532;2022-08-14T04:26:06;10.65;;;7.32;;
52480;SDS011;38393;52.404;13.532;2022-08-14T04:28:33;13.00;;;10.48;;
52480;SDS011;38393;52.404;13.532;2022-08-14T04:31:00;11.05;;;7.13;;
52480;SDS011;38393;52.404;13.532;2022-08-14T04:33:26;12.30;;;7.38;;
52480;SDS011;38393;52.404;13.532;2022-08-14T04:35:53;12.07;;;8.05;;
52480;SDS011;38393;52.404;13.532;2022-08-14T04:38:19;11.82;;;7.40;;
52480;SDS011;38393;52.404;13.532;2022-08-14T04:41:05;13.00;;;7.72;;
52480;SDS011;38393;52.404;13.532;2022-08-14T04:43:49;12.68;;;8.07;;
52480;SDS011;38393;52.404;13.532;2022-08-14T04:46:16;10.75;;;7.43;;
52480;SDS011;38393;52.404;13.532;2022-08-14T04:48:42;11.52;;;7.20;;
52480;SDS011;38393;52.404;13.532;2022-08-14T04:51:14;9.52;;;6.57;;
52480;SDS011;38393;52.404;13.532;2022-08-14T04:53:42;12.05;;;7.40;;
52480;SDS011;38393;52.404;13.532;2022-08-14T04:56:09;12.40;;;7.60;;
52480;SDS011;38393;52.404;13.532;2022-08-14T04:58:35;10.70;;;7.40;;
52480;SDS011;38393;52.404;13.532;2022-08-14T05:01:03;10.52;;;6.82;;
52480;SDS011;38393;52.404;13.532;2022-08-14T05:03:31;11.35;;;7.68;;
52480;SDS011;38393;52.404;13.532;2022-08-14T05:05:58;11.20;;;7.28;;
52480;SDS011;38393;52.404;13.532;2022-08-14T05:08:25;11.57;;;7.75;;
52480;SDS011;38393;52.404;13.532;2022-08-14T05:10:52;10.70;;;7.55;;
52480;SDS011;38393;52.404;13.532;2022-08-14T05:13:19;12.77;;;8.30;;
52480;SDS011;38393;52.404;13.532;2022-08-14T05:15:45;10.45;;;7.07;;
52480;SDS011;38393;52.404;13.532;2022-08-14T05:18:13;11.50;;;7.03;;
52480;SDS011;38393;52.404;13.532;2022-08-14T05:20:40;12.23;;;6.82;;
52480;SDS011;38393;52.404;13.532;2022-08-14T05:23:08;10.75;;;6.75;;
52480;SDS011;38393;52.404;13.532;2022-08-14T05:25:34;10.38;;;7.10;;
52480;SDS011;38393;52.404;13.532;2022-08-14T05:28:20;11.38;;;7.30;;
52480;SDS011;38393;52.404;13.532;2022-08-14T05:30:48;11.23;;;6.72;;
52480;SDS011;38393;52.404;13.532;2022-08-14T05:33:15;11.85;;;6.55;;
52480;SDS011;38393;52.404;13.532;2022-08-14T05:35:43;10.10;;;6.72;;
52480;SDS011;38393;52.404;13.532;2022-08-14T05:38:09;11.75;;;6.90;;
52480;SDS011;38393;52.404;13.532;2022-08-14T05:40:38;10.30;;;6.72;;
52480;SDS011;38393;52.404;13.532;2022-08-14T05:43:05;10.68;;;6.97;;
52480;SDS011;38393;52.404;13.532;2022-08-14T05:45:31;7.93;;;5.65;;
52480;SDS011;38393;52.404;13.532;2022-08-14T05:47:58;10.18;;;6.55;;
52480;SDS011;38393;52.404;13.532;2022-08-14T05:50:24;10.18;;;6.90;;
52480;SDS011;38393;52.404;13.532;2022-08-14T05:52:50;9.85;;;6.20;;
52480;SDS011;38393;52.404;13.532;2022-08-14T05:55:16;11.43;;;7.22;;
52480;SDS011;38393;52.404;13.532;2022-08-14T05:57:49;9.77;;;6.68;;
52480;SDS011;38393;52.404;13.532;2022-08-14T06:00:16;8.88;;;6.18;;
52480;SDS011;38393;52.404;13.532;2022-08-14T06:02:42;9.48;;;6.07;;
52480;SDS011;38393;52.404;13.532;2022-08-14T06:05:08;9.43;;;6.72;;
52480;SDS011;38393;52.404;13.532;2022-08-14T06:07:35;9.73;;;7.13;;
52480;SDS011;38393;52.404;13.532;2022-08-14T06:10:01;9.40;;;6.20;;
52480;SDS011;38393;52.404;13.532;2022-08-14T06:12:27;8.45;;;6.38;;
52480;SDS011;38393;52.404;13.532;2022-08-14T06:14:53;10.23;;;6.95;;
52480;SDS011;38393;52.404;13.532;2022-08-14T06:17:19;12.05;;;7.07;;
52480;SDS011;38393;52.404;13.532;2022-08-14T06:19:44;10.43;;;6.80;;
52480;SDS011;38393;52.404;13.532;2022-08-14T06:22:10;11.05;;;6.60;;
52480;SDS011;38393;52.404;13.532;2022-08-14T06:24:36;10.82;;;7.20;;
52480;SDS011;38393;52.404;13.532;2022-08-14T06:27:02;10.23;;;6.80;;
52480;SDS011;38393;52.404;13.532;2022-08-14T06:29:29;9.55;;;6.70;;
52480;SDS011;38393;52.404;13.532;2022-08-14T06:31:55;10.57;;;7.10;;
52480;SDS011;38393;52.404;13.532;2022-08-14T06:34:21;11.48;;;6.70;;
52480;SDS011;38393;52.404;13.532;2022-08-14T06:36:47;10.52;;;6.95;;
52480;SDS011;38393;52.404;13.532;2022-08-14T06:39:13;10.80;;;7.20;;
52480;SDS011;38393;52.404;13.532;2022-08-14T06:41:39;9.43;;;6.75;;
52480;SDS011;38393;52.404;13.532;2022-08-14T06:44:06;11.35;;;6.78;;
52480;SDS011;38393;52.404;13.532;2022-08-14T06:46:32;9.25;;;5.97;;
52480;SDS011;38393;52.404;13.532;2022-08-14T06:48:57;10.07;;;6.80;;
52480;SDS011;38393;52.404;13.532;2022-08-14T06:51:26;10.70;;;6.93;;
52480;SDS011;38393;52.404;13.532;2022-08-14T06:53:52;9.75;;;6.72;;
52480;SDS011;38393;52.404;13.532;2022-08-14T06:56:18;8.82;;;6.38;;
52480;SDS011;38393;52.404;13.532;2022-08-14T06:58:45;10.18;;;6.55;;
52480;SDS011;38393;52.404;13.532;2022-08-14T07:01:10;9.57;;;5.90;;
52480;SDS011;38393;52.404;13.532;2022-08-14T07:03:55;10.05;;;6.13;;
52480;SDS011;38393;52.404;13.532;2022-08-14T07:06:43;10.07;;;6.00;;
52480;SDS011;38393;52.404;13.532;2022-08-14T07:09:09;9.63;;;5.85;;
52480;SDS011;38393;52.404;13.532;2022-08-14T07:11:36;9.35;;;6.55;;
52480;SDS011;38393;52.404;13.532;2022-08-14T07:14:02;9.30;;;6.50;;
52480;SDS011;38393;52.404;13.532;2022-08-14T07:16:28;8.23;;;6.03;;
52480;SDS011;38393;52.404;13.532;2022-08-14T07:18:54;9.15;;;8.05;;
52480;SDS011;38393;52.404;13.532;2022-08-14T07:21:20;8.57;;;7.63;;
52480;SDS011;38393;52.404;13.532;2022-08-14T07:23:46;7.40;;;5.55;;
52480;SDS011;38393;52.404;13.532;2022-08-14T07:26:12;10.45;;;7.00;;
52480;SDS011;38393;52.404;13.532;2022-08-14T07:28:38;7.32;;;5.53;;
52480;SDS011;38393;52.404;13.532;2022-08-14T07:31:07;8.05;;;5.50;;
52480;SDS011;38393;52.404;13.532;2022-08-14T07:33:43;6.45;;;5.10;;
52480;SDS011;38393;52.404;13.532;2022-08-14T07:36:11;7.63;;;5.45;;
52480;SDS011;38393;52.404;13.532;2022-08-14T07:38:44;7.95;;;5.65;;
52480;SDS011;38393;52.404;13.532;2022-08-14T07:41:10;6.15;;;4.97;;
52480;SDS011;38393;52.404;13.532;2022-08-14T07:43:37;8.88;;;6.10;;
52480;SDS011;38393;52.404;13.532;2022-08-14T07:48:42;6.68;;;5.10;;
52480;SDS011;38393;52.404;13.532;2022-08-14T07:51:08;7.00;;;5.10;;
52480;SDS011;38393;52.404;13.532;2022-08-14T07:53:34;6.88;;;4.90;;
52480;SDS011;38393;52.404;13.532;2022-08-14T07:56:00;6.63;;;4.85;;
52480;SDS011;38393;52.404;13.532;2022-08-14T07:58:26;6.97;;;5.25;;
52480;SDS011;38393;52.404;13.532;2022-08-14T08:00:53;6.55;;;5.22;;
52480;SDS011;38393;52.404;13.532;2022-08-14T08:03:20;7.38;;;5.70;;
52480;SDS011;38393;52.404;13.532;2022-08-14T08:05:47;10.10;;;9.10;;
52480;SDS011;38393;52.404;13.532;2022-08-14T08:08:13;8.13;;;6.72;;
52480;SDS011;38393;52.404;13.532;2022-08-14T08:10:41;7.78;;;6.43;;
52480;SDS011;38393;52.404;13.532;2022-08-14T08:15:38;6.70;;;4.95;;
52480;SDS011;38393;52.404;13.532;2022-08-14T08:18:05;6.30;;;4.63;;
52480;SDS011;38393;52.404;13.532;2022-08-14T08:20:32;5.75;;;4.43;;
52480;SDS011;38393;52.404;13.532;2022-08-14T08:22:59;6.30;;;5.20;;
52480;SDS011;38393;52.404;13.532;2022-08-14T08:25:26;7.22;;;6.00;;
52480;SDS011;38393;52.404;13.532;2022-08-14T08:27:53;7.60;;;6.05;;
52480;SDS011;38393;52.404;13.532;2022-08-14T08:30:19;6.75;;;5.45;;
52480;SDS011;38393;52.404;13.532;2022-08-14T08:32:45;7.72;;;6.30;;
52480;SDS011;38393;52.404;13.532;2022-08-14T08:35:18;7.15;;;5.65;;
52480;SDS011;38393;52.404;13.532;2022-08-14T08:37:45;5.85;;;4.90;;
52480;SDS011;38393;52.404;13.532;2022-08-14T08:40:20;6.30;;;5.07;;
52480;SDS011;38393;52.404;13.532;2022-08-14T08:42:46;7.05;;;5.78;;
52480;SDS011;38393;52.404;13.532;2022-08-14T08:45:16;7.38;;;5.30;;
52480;SDS011;38393;52.404;13.532;2022-08-14T08:47:42;8.25;;;5.93;;
52480;SDS011;38393;52.404;13.532;2022-08-14T08:50:14;7.07;;;5.32;;
52480;SDS011;38393;52.404;13.532;2022-08-14T08:52:52;6.50;;;5.10;;
52480;SDS011;38393;52.404;13.532;2022-08-14T08:55:23;5.47;;;4.15;;
52480;SDS011;38393;52.404;13.532;2022-08-14T08:57:52;6.55;;;4.43;;
52480;SDS011;38393;52.404;13.532;2022-08-14T09:00:18;6.65;;;4.80;;
52480;SDS011;38393;52.404;13.532;2022-08-14T09:02:54;6.75;;;4.57;;
52480;SDS011;38393;52.404;13.532;2022-08-14T09:05:21;6.43;;;4.63;;
52480;SDS011;38393;52.404;13.532;2022-08-14T09:07:51;6.95;;;4.93;;
52480;SDS011;38393;52.404;13.532;2022-08-14T09:10:17;6.32;;;4.70;;
52480;SDS011;38393;52.404;13.532;2022-08-14T09:12:43;6.30;;;4.72;;
52480;SDS011;38393;52.404;13.532;2022-08-14T09:15:09;6.25;;;5.65;;
52480;SDS011;38393;52.404;13.532;2022-08-14T09:17:35;7.72;;;5.88;;
52480;SDS011;38393;52.404;13.532;2022-08-14T09:20:02;7.10;;;6.40;;
52480;SDS011;38393;52.404;13.532;2022-08-14T09:22:29;6.88;;;5.55;;
52480;SDS011;38393;52.404;13.532;2022-08-14T09:24:55;6.20;;;5.60;;
52480;SDS011;38393;52.404;13.532;2022-08-14T09:27:21;6.97;;;5.68;;
52480;SDS011;38393;52.404;13.532;2022-08-14T09:29:47;5.82;;;5.22;;
52480;SDS011;38393;52.404;13.532;2022-08-14T09:32:15;7.70;;;6.78;;
52480;SDS011;38393;52.404;13.532;2022-08-14T09:34:49;5.55;;;3.95;;
52480;SDS011;38393;52.404;13.532;2022-08-14T09:37:26;5.82;;;5.22;;
52480;SDS011;38393;52.404;13.532;2022-08-14T09:39:58;4.03;;;3.35;;
52480;SDS011;38393;52.404;13.532;2022-08-14T09:42:42;4.22;;;3.50;;
52480;SDS011;38393;52.404;13.532;2022-08-14T09:45:13;9.57;;;8.80;;
52480;SDS011;38393;52.404;13.532;2022-08-14T09:50:16;9.75;;;8.95;;
52480;SDS011;38393;52.404;13.532;2022-08-14T09:53:33;9.07;;;8.27;;
52480;SDS011;38393;52.404;13.532;2022-08-14T09:55:33;5.95;;;5.45;;
52480;SDS011;38393;52.404;13.532;2022-08-14T09:58:18;5.22;;;4.20;;
52480;SDS011;38393;52.404;13.532;2022-08-14T10:00:45;5.25;;;3.80;;
52480;SDS011;38393;52.404;13.532;2022-08-14T10:03:12;4.40;;;3.45;;
52480;SDS011;38393;52.404;13.532;2022-08-14T10:05:46;4.57;;;3.33;;
52480;SDS011;38393;52.404;13.532;2022-08-14T10:08:19;3.53;;;3.00;;
52480;SDS011;38393;52.404;13.532;2022-08-14T10:10:45;3.35;;;3.00;;
52480;SDS011;38393;52.404;13.532;2022-08-14T10:13:22;4.25;;;3.40;;
52480;SDS011;38393;52.404;13.532;2022-08-14T10:15:48;4.53;;;3.70;;
52480;SDS011;38393;52.404;13.532;2022-08-14T10:18:17;3.47;;;3.17;;
52480;SDS011;38393;52.404;13.532;2022-08-14T10:20:58;3.72;;;3.15;;
52480;SDS011;38393;52.404;13.532;2022-08-14T10:23:26;4.32;;;3.70;;
52480;SDS011;38393;52.404;13.532;2022-08-14T10:25:56;3.35;;;2.88;;
52480;SDS011;38393;52.404;13.532;2022-08-14T10:28:36;4.43;;;3.03;;
52480;SDS011;38393;52.404;13.532;2022-08-14T10:31:14;3.17;;;2.85;;
52480;SDS011;38393;52.404;13.532;2022-08-14T10:33:40;3.70;;;3.03;;
52480;SDS011;38393;52.404;13.532;2022-08-14T10:36:06;4.40;;;2.80;;
52480;SDS011;38393;52.404;13.532;2022-08-14T10:38:32;5.88;;;4.53;;
52480;SDS011;38393;52.404;13.532;2022-08-14T10:41:11;7.03;;;6.45;;
52480;SDS011;38393;52.404;13.532;2022-08-14T10:43:38;5.05;;;4.65;;
52480;SDS011;38393;52.404;13.532;2022-08-14T10:46:10;5.13;;;4.70;;
52480;SDS011;38393;52.404;13.532;2022-08-14T10:48:36;4.65;;;4.22;;
52480;SDS011;38393;52.404;13.532;2022-08-14T10:51:02;5.35;;;4.85;;
52480;SDS011;38393;52.404;13.532;2022-08-14T10:53:32;5.68;;;5.18;;
52480;SDS011;38393;52.404;13.532;2022-08-14T10:56:01;6.13;;;5.60;;
52480;SDS011;38393;52.404;13.532;2022-08-14T10:58:30;8.45;;;7.78;;
52480;SDS011;38393;52.404;13.532;2022-08-14T11:00:58;7.22;;;6.63;;
52480;SDS011;38393;52.404;13.532;2022-08-14T11:03:35;5.50;;;5.00;;
52480;SDS011;38393;52.404;13.532;2022-08-14T11:06:09;5.50;;;5.00;;
52480;SDS011;38393;52.404;13.532;2022-08-14T11:08:38;9.20;;;8.45;;
52480;SDS011;38393;52.404;13.532;2022-08-14T11:11:04;8.82;;;8.13;;
52480;SDS011;38393;52.404;13.532;2022-08-14T11:13:31;8.63;;;7.88;;
52480;SDS011;38393;52.404;13.532;2022-08-14T11:15:57;9.15;;;8.40;;
52480;SDS011;38393;52.404;13.532;2022-08-14T11:18:27;5.68;;;5.18;;
52480;SDS011;38393;52.404;13.532;2022-08-14T11:20:55;8.90;;;8.18;;
52480;SDS011;38393;52.404;13.532;2022-08-14T11:23:33;4.55;;;4.15;;
52480;SDS011;38393;52.404;13.532;2022-08-14T11:26:03;7.65;;;6.95;;
52480;SDS011;38393;52.404;13.532;2022-08-14T11:28:33;3.65;;;3.33;;
52480;SDS011;38393;52.404;13.532;2022-08-14T11:30:59;12.57;;;11.55;;
52480;SDS011;38393;52.404;13.532;2022-08-14T11:33:27;12.90;;;11.93;;
52480;SDS011;38393;52.404;13.532;2022-08-14T11:36:00;14.32;;;13.25;;
52480;SDS011;38393;52.404;13.532;2022-08-14T11:38:26;14.00;;;12.70;;
52480;SDS011;38393;52.404;13.532;2022-08-14T11:40:55;10.18;;;9.40;;
52480;SDS011;38393;52.404;13.532;2022-08-14T11:43:22;9.48;;;8.70;;
52480;SDS011;38393;52.404;13.532;2022-08-14T11:45:49;9.65;;;8.88;;
52480;SDS011;38393;52.404;13.532;2022-08-14T11:48:20;9.15;;;8.35;;
52480;SDS011;38393;52.404;13.532;2022-08-14T11:50:47;12.07;;;11.10;;
52480;SDS011;38393;52.404;13.532;2022-08-14T11:53:49;11.85;;;10.90;;
52480;SDS011;38393;52.404;13.532;2022-08-14T11:56:08;11.88;;;10.68;;
52480;SDS011;38393;52.404;13.532;2022-08-14T11:58:35;7.57;;;6.93;;
52480;SDS011;38393;52.404;13.532;2022-08-14T12:01:02;11.40;;;10.50;;
52480;SDS011;38393;52.404;13.532;2022-08-14T12:03:43;8.80;;;8.10;;
52480;SDS011;38393;52.404;13.532;2022-08-14T12:06:14;8.52;;;7.82;;
52480;SDS011;38393;52.404;13.532;2022-08-14T12:08:40;7.97;;;7.32;;
52480;SDS011;38393;52.404;13.532;2022-08-14T12:11:07;9.88;;;9.10;;
52480;SDS011;38393;52.404;13.532;2022-08-14T12:13:34;14.30;;;13.27;;
52480;SDS011;38393;52.404;13.532;2022-08-14T12:18:33;5.07;;;3.67;;
52480;SDS011;38393;52.404;13.532;2022-08-14T12:21:21;3.22;;;2.78;;
52480;SDS011;38393;52.404;13.532;2022-08-14T12:23:46;3.40;;;3.10;;
52480;SDS011;38393;52.404;13.532;2022-08-14T12:26:13;3.95;;;3.05;;
52480;SDS011;38393;52.404;13.532;2022-08-14T12:28:41;3.40;;;3.10;;
52480;SDS011;38393;52.404;13.532;2022-08-14T12:31:10;3.20;;;2.90;;
52480;SDS011;38393;52.404;13.532;2022-08-14T12:33:36;3.63;;;3.28;;
52480;SDS011;38393;52.404;13.532;2022-08-14T12:36:07;3.40;;;2.97;;
52480;SDS011;38393;52.404;13.532;2022-08-14T12:38:37;3.78;;;2.70;;
52480;SDS011;38393;52.404;13.532;2022-08-14T12:41:12;3.67;;;3.28;;
52480;SDS011;38393;52.404;13.532;2022-08-14T12:43:46;3.38;;;2.90;;
52480;SDS011;38393;52.404;13.532;2022-08-14T12:46:19;3.60;;;3.15;;
52480;SDS011;38393;52.404;13.532;2022-08-14T12:48:47;5.47;;;5.03;;
52480;SDS011;38393;52.404;13.532;2022-08-14T12:51:16;3.67;;;3.38;;
52480;SDS011;38393;52.404;13.532;2022-08-14T12:53:43;3.60;;;3.30;;
52480;SDS011;38393;52.404;13.532;2022-08-14T12:56:09;3.83;;;3.17;;
52480;SDS011;38393;52.404;13.532;2022-08-14T12:58:37;4.30;;;3.90;;
52480;SDS011;38393;52.404;13.532;2022-08-14T13:01:04;10.40;;;9.60;;
52480;SDS011;38393;52.404;13.532;2022-08-14T13:03:30;12.13;;;11.10;;
52480;SDS011;38393;52.404;13.532;2022-08-14T13:05:56;13.68;;;12.70;;
52480;SDS011;38393;52.404;13.532;2022-08-14T13:08:22;12.32;;;11.40;;
52480;SDS011;38393;52.404;13.532;2022-08-14T13:10:49;6.05;;;5.57;;
52480;SDS011;38393;52.404;13.532;2022-08-14T13:13:16;4.28;;;3.88;;
52480;SDS011;38393;52.404;13.532;2022-08-14T13:15:43;5.45;;;5.05;;
52480;SDS011;38393;52.404;13.532;2022-08-14T13:18:09;5.32;;;4.93;;
52480;SDS011;38393;52.404;13.532;2022-08-14T13:20:36;4.57;;;4.18;;
52480;SDS011;38393;52.404;13.532;2022-08-14T13:23:05;3.97;;;3.65;;
52480;SDS011;38393;52.404;13.532;2022-08-14T13:25:32;4.00;;;3.70;;
52480;SDS011;38393;52.404;13.532;2022-08-14T13:27:58;5.60;;;5.10;;
52480;SDS011;38393;52.404;13.532;2022-08-14T13:30:24;5.15;;;4.65;;
52480;SDS011;38393;52.404;13.532;2022-08-14T13:32:51;5.40;;;5.00;;
52480;SDS011;38393;52.404;13.532;2022-08-14T13:35:17;5.45;;;5.05;;
52480;SDS011;38393;52.404;13.532;2022-08-14T13:37:44;4.40;;;4.07;;
52480;SDS011;38393;52.404;13.532;2022-08-14T13:40:14;3.58;;;3.28;;
52480;SDS011;38393;52.404;13.532;2022-08-14T13:42:44;4.88;;;4.47;;
52480;SDS011;38393;52.404;13.532;2022-08-14T13:45:10;28.23;;;4.65;;
52480;SDS011;38393;52.404;13.532;2022-08-14T13:47:38;3.92;;;3.63;;
52480;SDS011;38393;52.404;13.532;2022-08-14T13:50:06;6.45;;;5.93;;
52480;SDS011;38393;52.404;13.532;2022-08-14T13:52:34;4.82;;;4.43;;
52480;SDS011;38393;52.404;13.532;2022-08-14T13:55:05;10.27;;;9.52;;
52480;SDS011;38393;52.404;13.532;2022-08-14T13:57:32;13.30;;;12.25;;
52480;SDS011;38393;52.404;13.532;2022-08-14T14:00:00;13.23;;;12.23;;
52480;SDS011;38393;52.404;13.532;2022-08-14T14:02:30;14.55;;;13.52;;
52480;SDS011;38393;52.404;13.532;2022-08-14T14:04:56;19.17;;;17.80;;
52480;SDS011;38393;52.404;13.532;2022-08-14T14:07:25;20.00;;;18.60;;
52480;SDS011;38393;52.404;13.532;2022-08-14T14:09:53;22.52;;;20.92;;
52480;SDS011;38393;52.404;13.532;2022-08-14T14:12:20;14.10;;;13.07;;
52480;SDS011;38393;52.404;13.532;2022-08-14T14:14:46;11.70;;;10.85;;
52480;SDS011;38393;52.404;13.532;2022-08-14T14:17:12;8.68;;;7.97;;
52480;SDS011;38393;52.404;13.532;2022-08-14T14:19:41;4.55;;;4.15;;
52480;SDS011;38393;52.404;13.532;2022-08-14T14:22:11;4.10;;;3.72;;
52480;SDS011;38393;52.404;13.532;2022-08-14T14:24:39;2.88;;;2.67;;
52480;SDS011;38393;52.404;13.532;2022-08-14T14:27:05;2.72;;;2.53;;
52480;SDS011;38393;52.404;13.532;2022-08-14T14:29:32;4.60;;;4.20;;
52480;SDS011;38393;52.404;13.532;2022-08-14T14:32:01;4.20;;;3.80;;
52480;SDS011;38393;52.404;13.532;2022-08-14T14:34:28;3.90;;;3.47;;
52480;SDS011;38393;52.404;13.532;2022-08-14T14:36:55;3.63;;;3.28;;
52480;SDS011;38393;52.404;13.532;2022-08-14T14:39:26;3.55;;;3.25;;
52480;SDS011;38393;52.404;13.532;2022-08-14T14:41:53;3.42;;;3.13;;
52480;SDS011;38393;52.404;13.532;2022-08-14T14:44:24;3.35;;;3.05;;
52480;SDS011;38393;52.404;13.532;2022-08-14T14:46:51;3.00;;;2.70;;
52480;SDS011;38393;52.404;13.532;2022-08-14T14:49:18;3.50;;;3.20;;